Terminal Aerodrome Forecast
Issued by NWS Bismarck, ND

Home | Current Version | Previous Version | Text Only | Print | Product List | Glossary On
Versions: 1 2 3 4 5 6 7 8 9 10 11 12 13 14 15 16
000
FTUS43 KBIS 221123
TAFBIS
TAF
KBIS 221123Z 2212/2312 06003KT 1/4SM FZFG VV002
     FM221700 34004KT 1/2SM FZFG OVC003
     FM222100 33004KT 3SM BR OVC006
     FM230200 VRB03KT 3SM BR BKN003=

USA.gov is the U.S. government's official web portal to all federal, state and local government web resources and services.